»·PEaware :: CGVZB KPDX-CYCG

CGVZB :: KPDX-CYCG

FLIGHT INFORMATION

Flight Status: Arrived
Operator: Unknown
More flights by this operator :: More flights under this callsign
Pilot: Alan S. (10569)
Aircraft: BOMBARDIER BD-100 CHALLENGER 300
(CL30)
More flights by this aircraft type
Origin: KPDX Portland Intl
United States
Destination: CYCG Castlegar
Canada
More flights between these airports :: More routes between these airports
Route: +PTLD1 BTG V448 GEG V112 EDGES ERVYN
File this flight plan on PilotEdge
Remarks: Nothing remarkable.
Altitude:
(Current/Filed)
31,000ft
Speed:
(Current/Filed)
465kts
Departed: 02-Apr-17 09:45 PM
Arrived: 02-Apr-17 10:55 PM
Distance/Time
Traveled:
300nm/1:10
Distance/Time
To Go:
Arrived

Flight Plot

Page will automatically refresh every two minutes.

Flight plan parsing failed; only flown route is shown


Map Options




Map Legend


Flown Route
Filed Route
Departure Airport
Arrival Airport
Navaid (VOR, NDB)
Fix

Horizontal Profiles

Position Reports

Time Latitude Longitude Heading Altitude Ground
Speed
02-Apr-17 21:18 45.586697 -122.583952 117 21ft 0kts
02-Apr-17 21:19 45.586697 -122.583952 117 21ft 0kts
02-Apr-17 21:20 45.586697 -122.583952 117 21ft 0kts
02-Apr-17 21:21 45.586697 -122.583952 117 21ft 0kts
02-Apr-17 21:22 45.586697 -122.583952 117 21ft 0kts
02-Apr-17 21:23 45.586697 -122.583952 117 21ft 0kts
02-Apr-17 21:24 45.586697 -122.583952 117 21ft 0kts
02-Apr-17 21:25 45.586697 -122.583952 117 21ft 0kts
02-Apr-17 21:26 45.586697 -122.583952 117 21ft 0kts
02-Apr-17 21:27 45.586697 -122.583952 117 21ft 0kts
02-Apr-17 21:28 45.586697 -122.583952 117 21ft 0kts
02-Apr-17 21:29 45.586697 -122.583952 117 21ft 0kts
02-Apr-17 21:30 45.586697 -122.583952 117 21ft 0kts
02-Apr-17 21:31 45.586697 -122.583952 117 21ft 0kts
02-Apr-17 21:32 45.586697 -122.583952 117 21ft 0kts
02-Apr-17 21:33 45.586697 -122.583952 117 21ft 0kts
02-Apr-17 21:34 45.586697 -122.583952 117 21ft 0kts
02-Apr-17 21:35 45.586697 -122.583952 117 21ft 0kts
02-Apr-17 21:36 45.586694 -122.583945 117 21ft 1kts
02-Apr-17 21:37 45.586706 -122.583087 27 21ft 0kts
02-Apr-17 21:38 45.586780 -122.582543 121 21ft 6kts
02-Apr-17 21:39 45.586776 -122.580650 118 21ft 9kts
02-Apr-17 21:40 45.586670 -122.578250 66 21ft 8kts
02-Apr-17 21:41 45.585485 -122.574918 120 21ft 8kts
02-Apr-17 21:42 45.584497 -122.572370 121 22ft 10kts
02-Apr-17 21:43 45.583421 -122.569535 106 21ft 4kts
02-Apr-17 21:44 45.583420 -122.569237 74 21ft 0kts
02-Apr-17 21:45 45.584619 -122.569473 298 21ft 20kts
02-Apr-17 21:46 45.605059 -122.625601 297 1735ft 247kts
02-Apr-17 21:47 45.634334 -122.710293 296 5743ft 239kts
02-Apr-17 21:48 45.689115 -122.737070 41 8980ft 283kts
02-Apr-17 21:49 45.730249 -122.636464 57 12671ft 308kts
02-Apr-17 21:50 45.776714 -122.519035 57 15123ft 358kts
02-Apr-17 21:51 45.827026 -122.392112 57 17955ft 380kts
02-Apr-17 21:52 45.879640 -122.258721 58 20514ft 399kts
02-Apr-17 21:53 45.934776 -122.118255 58 22858ft 413kts
02-Apr-17 21:54 45.991606 -121.972688 58 24883ft 428kts
02-Apr-17 21:55 46.050610 -121.820950 59 26903ft 438kts
02-Apr-17 21:56 46.108112 -121.671841 59 28411ft 451kts
02-Apr-17 21:57 46.166565 -121.519605 59 29695ft 464kts
02-Apr-17 21:58 46.229168 -121.355816 59 31035ft 468kts
02-Apr-17 21:59 46.290219 -121.194782 59 31386ft 479kts
02-Apr-17 22:00 46.353565 -121.026915 59 31180ft 470kts
02-Apr-17 22:01 46.415221 -120.862550 59 31184ft 466kts
02-Apr-17 22:02 46.477030 -120.696691 59 31185ft 470kts
02-Apr-17 22:03 46.538625 -120.530416 59 31164ft 473kts
02-Apr-17 22:04 46.612088 -120.374840 47 31160ft 471kts
02-Apr-17 22:05 46.692585 -120.233313 48 31155ft 471kts
02-Apr-17 22:06 46.776148 -120.087312 48 31156ft 472kts
02-Apr-17 22:07 46.859552 -119.941080 48 31144ft 472kts
02-Apr-17 22:08 46.942580 -119.794839 48 31130ft 472kts
02-Apr-17 22:09 47.025744 -119.647544 48 31139ft 472kts
02-Apr-17 22:10 47.107210 -119.502495 48 31157ft 472kts
02-Apr-17 22:11 47.188875 -119.356321 47 31159ft 472kts
02-Apr-17 22:12 47.238122 -119.184164 70 31155ft 476kts
02-Apr-17 22:13 47.279359 -118.999388 71 31156ft 476kts
02-Apr-17 22:14 47.319296 -118.813926 71 31157ft 476kts
02-Apr-17 22:15 47.358654 -118.629026 72 31161ft 475kts
02-Apr-17 22:16 47.397490 -118.443812 71 31083ft 477kts
02-Apr-17 22:17 47.434937 -118.264022 72 31074ft 477kts
02-Apr-17 22:18 47.473397 -118.077660 72 31074ft 477kts
02-Apr-17 22:19 47.511628 -117.890666 72 31075ft 476kts
02-Apr-17 22:20 47.549530 -117.704734 70 31064ft 476kts
02-Apr-17 22:21 47.643761 -117.579022 28 31076ft 465kts
02-Apr-17 22:22 47.755935 -117.487029 24 31078ft 464kts
02-Apr-17 22:23 47.870320 -117.399840 23 31078ft 464kts
02-Apr-17 22:24 47.982266 -117.315403 24 31074ft 464kts
02-Apr-17 22:25 48.096328 -117.229203 24 31074ft 464kts
02-Apr-17 22:26 48.202031 -117.148986 24 31074ft 464kts
02-Apr-17 22:27 48.316790 -117.061528 24 31075ft 464kts
02-Apr-17 22:28 48.431425 -116.973725 24 31075ft 464kts
02-Apr-17 22:29 48.545932 -116.885571 24 31075ft 464kts
02-Apr-17 22:30 48.659753 -116.797503 24 31015ft 466kts
02-Apr-17 22:31 48.774071 -116.708514 24 31048ft 464kts
02-Apr-17 22:32 48.888306 -116.619263 24 30998ft 465kts
02-Apr-17 22:33 49.008301 -116.617681 336 30995ft 444kts
02-Apr-17 22:34 49.112138 -116.688941 329 30995ft 442kts
02-Apr-17 22:35 49.216567 -116.773648 327 30214ft 415kts
02-Apr-17 22:36 49.312697 -116.854914 327 28620ft 384kts
02-Apr-17 22:37 49.391318 -116.924872 321 29058ft 316kts
02-Apr-17 22:38 49.469298 -117.001834 324 27073ft 353kts
02-Apr-17 22:39 49.537179 -117.097424 296 24104ft 327kts
02-Apr-17 22:40 49.540117 -117.225702 259 21609ft 294kts
02-Apr-17 22:41 49.529735 -117.347271 261 19031ft 287kts
02-Apr-17 22:42 49.519545 -117.467161 266 16228ft 281kts
02-Apr-17 22:43 49.572162 -117.526102 8 14051ft 272kts
02-Apr-17 22:44 49.641464 -117.493690 45 12009ft 266kts
02-Apr-17 22:45 49.614616 -117.409880 183 10081ft 276kts
02-Apr-17 22:46 49.546731 -117.459656 204 8216ft 270kts
02-Apr-17 22:47 49.482235 -117.504232 204 7213ft 234kts
02-Apr-17 22:48 49.422430 -117.545037 209 7189ft 236kts
02-Apr-17 22:49 49.365996 -117.587503 207 6899ft 211kts
02-Apr-17 22:50 49.318990 -117.622603 212 5903ft 181kts
02-Apr-17 22:51 49.278024 -117.658883 211 5012ft 175kts
02-Apr-17 22:52 49.236266 -117.697054 212 4234ft 175kts
02-Apr-17 22:53 49.210908 -117.667605 44 3290ft 173kts
02-Apr-17 22:54 49.253426 -117.641567 21 2683ft 147kts
02-Apr-17 22:55 49.289688 -117.629175 347 1627ft 132kts
02-Apr-17 22:56 49.300554 -117.634043 168 1597ft 8kts
02-Apr-17 22:57 49.299696 -117.634383 261 1597ft 0kts

Navigation Log

Ident Type
Flight plan parsing failed, navigation log unavailable